createdAt,value
2018-06-05T00:00:16.349Z,22.03
2018-06-05T00:01:26.319Z,22.02
2018-06-05T00:02:16.659Z,22.02
2018-06-05T00:03:16.034Z,22.02
2018-06-05T00:04:16.171Z,22.02
2018-06-05T00:05:16.160Z,22.02
2018-06-05T00:06:15.954Z,22.02
2018-06-05T00:07:16.145Z,22.02
2018-06-05T00:08:16.007Z,22.02
2018-06-05T00:09:15.932Z,22.02
2018-06-05T00:10:16.112Z,22.02
2018-06-05T00:11:16.259Z,22.02
2018-06-05T00:12:16.232Z,22.02
2018-06-05T00:13:16.081Z,22.02
2018-06-05T00:14:15.960Z,22.02
2018-06-05T00:15:16.126Z,22.02
2018-06-05T00:16:15.964Z,22.01
2018-06-05T00:17:15.957Z,22.02
2018-06-05T00:18:16.046Z,22.02
2018-06-05T00:19:16.136Z,22.03
2018-06-05T00:20:16.444Z,22.01
2018-06-05T00:21:16.131Z,22.01
2018-06-05T00:22:16.296Z,22.01
2018-06-05T00:23:16.020Z,22.02
2018-06-05T00:24:16.144Z,22.02
2018-06-05T00:25:16.052Z,22.01
2018-06-05T00:26:16.242Z,22.01
2018-06-05T00:27:16.128Z,22.01
2018-06-05T00:28:16.321Z,22
2018-06-05T00:29:16.246Z,22.02
2018-06-05T00:30:15.983Z,22.02
2018-06-05T00:31:15.919Z,22.01
2018-06-05T00:32:16.498Z,22.01
2018-06-05T00:33:16.259Z,22.01
2018-06-05T00:34:15.941Z,22.02
2018-06-05T00:35:15.868Z,22.01
2018-06-05T00:36:16.159Z,22.01
2018-06-05T00:37:16.221Z,22.01
2018-06-05T00:38:15.988Z,22.01
2018-06-05T00:39:16.271Z,22.01
2018-06-05T00:40:15.974Z,22.01
2018-06-05T00:41:15.962Z,22.01
2018-06-05T00:42:16.335Z,22.01
2018-06-05T00:43:16.128Z,22.01
2018-06-05T00:44:15.961Z,22.01
2018-06-05T00:45:16.151Z,22.01
2018-06-05T00:46:16.093Z,22.01
2018-06-05T00:47:16.171Z,22.01
2018-06-05T00:48:16.005Z,22.01
2018-06-05T00:49:16.132Z,22.01
2018-06-05T00:50:16.042Z,22.01
2018-06-05T00:51:16.080Z,22.01
2018-06-05T00:52:16.326Z,22
2018-06-05T00:53:15.907Z,22.01
2018-06-05T00:54:16.120Z,22.01
2018-06-05T00:55:15.953Z,22
2018-06-05T00:56:16.142Z,22.01
2018-06-05T00:57:16.261Z,22.01
2018-06-05T00:58:16.206Z,21.99
2018-06-05T00:59:15.953Z,22
2018-06-05T01:00:16.136Z,22.01
2018-06-05T01:01:16.088Z,22
2018-06-05T01:02:15.999Z,22
2018-06-05T01:03:16.093Z,22
2018-06-05T01:04:15.931Z,22
2018-06-05T01:05:16.130Z,22.01
2018-06-05T01:06:16.150Z,22
2018-06-05T01:07:16.106Z,22
2018-06-05T01:08:15.986Z,22
2018-06-05T01:09:16.385Z,22
2018-06-05T01:10:16.046Z,22
2018-06-05T01:11:16.001Z,22
2018-06-05T01:12:15.971Z,22
2018-06-05T01:13:16.362Z,21.99
2018-06-05T01:14:15.904Z,22
2018-06-05T01:15:16.000Z,22
2018-06-05T01:16:16.006Z,22
2018-06-05T01:17:16.104Z,22
2018-06-05T01:18:15.883Z,22
2018-06-05T01:19:16.149Z,21.99
2018-06-05T01:20:16.328Z,22
2018-06-05T01:21:15.941Z,21.99
2018-06-05T01:22:15.921Z,22
2018-06-05T01:23:15.917Z,22
2018-06-05T01:24:16.016Z,21.99
2018-06-05T01:25:16.057Z,22
2018-06-05T01:26:15.921Z,21.99
2018-06-05T01:27:16.165Z,21.99
2018-06-05T01:28:15.958Z,21.98
2018-06-05T01:29:16.116Z,21.99
2018-06-05T01:30:16.133Z,22
2018-06-05T01:31:16.204Z,21.99
2018-06-05T01:32:16.238Z,21.99
2018-06-05T01:33:18.729Z,21.99
2018-06-05T01:34:16.403Z,21.98
2018-06-05T01:35:16.107Z,21.99
2018-06-05T01:36:16.069Z,21.99
2018-06-05T01:37:16.146Z,21.99
2018-06-05T01:38:16.364Z,21.99
2018-06-05T01:39:16.069Z,21.99
2018-06-05T01:40:16.355Z,21.99
2018-06-05T01:41:18.711Z,21.99
2018-06-05T01:42:18.487Z,21.99
2018-06-05T01:43:16.570Z,21.99
2018-06-05T01:44:18.717Z,21.99
2018-06-05T01:45:16.472Z,21.99
2018-06-05T01:46:16.166Z,21.98
2018-06-05T01:47:16.149Z,21.98
2018-06-05T01:48:16.328Z,21.98
2018-06-05T01:49:16.167Z,21.98
2018-06-05T01:50:16.237Z,21.99
2018-06-05T01:51:25.974Z,21.99
2018-06-05T01:52:16.396Z,21.99
2018-06-05T01:53:16.329Z,21.99
2018-06-05T01:54:16.125Z,21.98
2018-06-05T01:55:16.125Z,21.98
2018-06-05T01:56:16.218Z,21.98
2018-06-05T01:57:16.345Z,21.98
2018-06-05T01:58:16.090Z,21.99
2018-06-05T01:59:16.241Z,21.98
2018-06-05T02:00:16.126Z,21.98
2018-06-05T02:01:16.088Z,21.98
2018-06-05T02:02:19.219Z,21.98
2018-06-05T02:03:18.352Z,21.99
2018-06-05T02:04:26.109Z,21.98
2018-06-05T02:05:18.392Z,21.98
2018-06-05T02:06:16.096Z,21.98
2018-06-05T02:07:16.236Z,21.99
2018-06-05T02:08:16.089Z,21.98
2018-06-05T02:09:16.910Z,21.99
2018-06-05T02:10:16.240Z,21.98
2018-06-05T02:11:18.240Z,21.98
2018-06-05T02:12:16.192Z,21.98
2018-06-05T02:13:16.303Z,21.98
2018-06-05T02:14:16.388Z,21.98
2018-06-05T02:15:16.210Z,21.98
2018-06-05T02:16:16.317Z,21.98
2018-06-05T02:17:16.200Z,21.98
2018-06-05T02:18:16.305Z,21.98
2018-06-05T02:19:16.137Z,21.98
2018-06-05T02:20:16.201Z,21.98
2018-06-05T02:21:16.336Z,21.98
2018-06-05T02:22:16.188Z,21.98
2018-06-05T02:23:18.071Z,21.98
2018-06-05T02:24:16.259Z,21.98
2018-06-05T02:25:18.138Z,21.97
2018-06-05T02:26:18.681Z,21.98
2018-06-05T02:27:16.187Z,21.97
2018-06-05T02:28:16.228Z,21.97
2018-06-05T02:29:15.975Z,21.98
2018-06-05T02:30:16.091Z,21.97
2018-06-05T02:31:15.869Z,21.97
2018-06-05T02:32:16.083Z,21.97
2018-06-05T02:33:16.070Z,21.98
2018-06-05T02:34:16.214Z,21.98
2018-06-05T02:35:16.168Z,21.97
2018-06-05T02:36:16.283Z,21.98
2018-06-05T02:37:15.937Z,21.97
2018-06-05T02:38:15.971Z,21.97
2018-06-05T02:39:16.066Z,21.97
2018-06-05T02:40:15.912Z,21.97
2018-06-05T02:41:16.132Z,21.97
2018-06-05T02:42:16.109Z,21.97
2018-06-05T02:43:16.229Z,21.97
2018-06-05T02:44:16.043Z,21.96
2018-06-05T02:45:16.150Z,21.98
2018-06-05T02:46:15.954Z,21.97
2018-06-05T02:47:15.997Z,21.97
2018-06-05T02:48:16.168Z,21.97
2018-06-05T02:49:16.278Z,21.97
2018-06-05T02:50:15.909Z,21.97
2018-06-05T02:51:15.869Z,21.97
2018-06-05T02:52:15.953Z,21.97
2018-06-05T02:53:16.196Z,21.97
2018-06-05T02:54:16.112Z,21.97
2018-06-05T02:55:16.104Z,21.96
2018-06-05T02:56:16.155Z,21.97
2018-06-05T02:57:15.912Z,21.96
2018-06-05T02:58:15.903Z,21.97
2018-06-05T02:59:16.108Z,21.97
2018-06-05T03:00:16.452Z,21.96
2018-06-05T03:01:15.922Z,21.95
2018-06-05T03:02:15.949Z,21.96
2018-06-05T03:03:16.066Z,21.96
2018-06-05T03:04:16.117Z,21.96
2018-06-05T03:05:16.350Z,21.97
2018-06-05T03:06:15.904Z,21.97
2018-06-05T03:07:16.209Z,21.97
2018-06-05T03:08:16.088Z,21.96
2018-06-05T03:09:15.983Z,21.96
2018-06-05T03:10:16.102Z,21.96
2018-06-05T03:11:16.480Z,21.96
2018-06-05T03:12:16.067Z,21.96
2018-06-05T03:13:15.858Z,21.96
2018-06-05T03:14:16.235Z,21.96
2018-06-05T03:15:16.479Z,21.96
2018-06-05T03:16:15.967Z,21.96
2018-06-05T03:17:16.161Z,21.96
2018-06-05T03:18:15.961Z,21.96
2018-06-05T03:19:15.877Z,21.96
2018-06-05T03:20:16.069Z,21.96
2018-06-05T03:21:16.291Z,21.96
2018-06-05T03:22:16.103Z,21.96
2018-06-05T03:23:16.105Z,21.96
2018-06-05T03:24:16.297Z,21.96
2018-06-05T03:25:15.866Z,21.96
2018-06-05T03:26:15.993Z,21.95
2018-06-05T03:27:15.971Z,21.95
2018-06-05T03:28:16.188Z,21.95
2018-06-05T03:29:16.045Z,21.95
2018-06-05T03:30:15.929Z,21.96
2018-06-05T03:31:16.030Z,21.95
2018-06-05T03:32:16.101Z,21.96
2018-06-05T03:33:15.878Z,21.95
2018-06-05T03:34:16.059Z,21.95
2018-06-05T03:35:15.960Z,21.96
2018-06-05T03:36:16.335Z,21.95
2018-06-05T03:37:16.106Z,21.95
2018-06-05T03:38:15.976Z,21.96
2018-06-05T03:39:16.167Z,21.96
2018-06-05T03:40:15.994Z,21.95
2018-06-05T03:41:16.106Z,21.96
2018-06-05T03:42:16.034Z,21.96
2018-06-05T03:43:16.042Z,21.95
2018-06-05T03:44:16.090Z,21.95
2018-06-05T03:45:15.983Z,21.95
2018-06-05T03:46:16.149Z,21.95
2018-06-05T03:47:15.871Z,21.96
2018-06-05T03:48:16.072Z,21.96
2018-06-05T03:49:16.525Z,21.95
2018-06-05T03:50:16.081Z,21.95
2018-06-05T03:51:16.219Z,21.95
2018-06-05T03:52:16.236Z,21.95
2018-06-05T03:53:15.863Z,21.95
2018-06-05T03:54:15.895Z,21.94
2018-06-05T03:55:16.085Z,21.95
2018-06-05T03:56:16.049Z,21.96
2018-06-05T03:57:16.190Z,21.96
2018-06-05T03:58:16.009Z,21.94
2018-06-05T03:59:16.216Z,21.95
2018-06-05T04:00:16.099Z,21.95
2018-06-05T04:01:16.014Z,21.95
2018-06-05T04:02:16.360Z,21.96
2018-06-05T04:03:16.138Z,21.96
2018-06-05T04:04:15.896Z,21.95
2018-06-05T04:05:16.396Z,21.95
2018-06-05T04:06:16.253Z,21.95
2018-06-05T04:07:16.494Z,21.95
2018-06-05T04:08:16.187Z,21.95
2018-06-05T04:09:15.885Z,21.96
2018-06-05T04:10:16.114Z,21.95
2018-06-05T04:11:16.120Z,21.94
2018-06-05T04:12:16.007Z,21.95
2018-06-05T04:13:16.467Z,21.95
2018-06-05T04:14:16.061Z,21.95
2018-06-05T04:15:15.772Z,21.94
2018-06-05T04:16:16.074Z,21.94
2018-06-05T04:17:15.987Z,21.95
2018-06-05T04:18:15.966Z,21.95
2018-06-05T04:19:16.048Z,21.94
2018-06-05T04:20:15.899Z,21.95
2018-06-05T04:21:16.242Z,21.95
2018-06-05T04:22:16.246Z,21.94
2018-06-05T04:23:16.019Z,21.94
2018-06-05T04:24:16.261Z,21.94
2018-06-05T04:25:15.906Z,21.94
2018-06-05T04:26:15.857Z,21.94
2018-06-05T04:27:15.855Z,21.95
2018-06-05T04:28:16.123Z,21.92
2018-06-05T04:29:16.082Z,21.94
2018-06-05T04:30:15.967Z,21.93
2018-06-05T04:31:15.991Z,21.93
2018-06-05T04:32:16.002Z,21.94
2018-06-05T04:33:15.920Z,21.95
2018-06-05T04:34:15.993Z,21.93
2018-06-05T04:35:15.872Z,21.94
2018-06-05T04:36:15.992Z,21.94
2018-06-05T04:37:15.975Z,21.93
2018-06-05T04:38:16.018Z,21.93
2018-06-05T04:39:15.987Z,21.94
2018-06-05T04:40:16.069Z,21.93
2018-06-05T04:41:15.939Z,21.93
2018-06-05T04:42:15.864Z,21.93
2018-06-05T04:43:16.045Z,21.93
2018-06-05T04:44:16.025Z,21.95
2018-06-05T04:45:16.167Z,21.94
2018-06-05T04:46:15.925Z,21.93
2018-06-05T04:47:16.045Z,21.93
2018-06-05T04:48:15.949Z,21.94
2018-06-05T04:49:15.997Z,21.92
2018-06-05T04:50:16.073Z,21.93
2018-06-05T04:51:16.319Z,21.93
2018-06-05T04:52:15.977Z,21.93
2018-06-05T04:53:16.436Z,21.94
2018-06-05T04:54:16.365Z,21.94
2018-06-05T04:55:16.074Z,21.93
2018-06-05T04:56:15.884Z,21.94
2018-06-05T04:57:16.088Z,21.95
2018-06-05T04:58:16.000Z,21.93
2018-06-05T04:59:16.073Z,21.93
2018-06-05T05:00:15.967Z,21.94
2018-06-05T05:01:15.995Z,21.93
2018-06-05T05:02:15.875Z,21.93
2018-06-05T05:03:15.985Z,21.93
2018-06-05T05:04:15.966Z,21.93
2018-06-05T05:05:16.001Z,21.93
2018-06-05T05:06:15.858Z,21.93
2018-06-05T05:07:15.886Z,21.93
2018-06-05T05:08:15.943Z,21.94
2018-06-05T05:09:15.986Z,21.93
2018-06-05T05:10:16.103Z,21.94
2018-06-05T05:11:16.206Z,21.92
2018-06-05T05:12:16.014Z,21.93
2018-06-05T05:13:16.009Z,21.93
2018-06-05T05:14:15.934Z,21.93
2018-06-05T05:15:16.030Z,21.94
2018-06-05T05:16:16.380Z,21.92
2018-06-05T05:17:15.973Z,21.92
2018-06-05T05:18:15.868Z,21.94
2018-06-05T05:19:15.836Z,21.93
2018-06-05T05:20:15.996Z,21.93
2018-06-05T05:21:15.944Z,21.94
2018-06-05T05:22:15.833Z,21.94
2018-06-05T05:23:16.052Z,21.93
2018-06-05T05:24:16.166Z,21.93
2018-06-05T05:25:16.027Z,21.93
2018-06-05T05:26:16.386Z,21.93
2018-06-05T05:27:16.016Z,21.94
2018-06-05T05:28:16.120Z,21.93
2018-06-05T05:29:16.140Z,21.93
2018-06-05T05:30:16.063Z,21.94
2018-06-05T05:31:16.326Z,21.94
2018-06-05T05:32:16.297Z,21.94
2018-06-05T05:33:15.890Z,21.94
2018-06-05T05:34:16.079Z,21.94
2018-06-05T05:35:16.204Z,21.93
2018-06-05T05:36:16.001Z,21.93
2018-06-05T05:37:16.143Z,21.93
2018-06-05T05:38:16.071Z,21.92
2018-06-05T05:39:16.222Z,21.94
2018-06-05T05:40:16.104Z,21.94
2018-06-05T05:41:15.996Z,21.93
2018-06-05T05:42:15.925Z,21.94
2018-06-05T05:43:16.017Z,21.94
2018-06-05T05:44:16.079Z,21.94
2018-06-05T05:45:16.129Z,21.94
2018-06-05T05:46:15.828Z,21.94
2018-06-05T05:47:16.097Z,21.93
2018-06-05T05:48:15.907Z,21.94
2018-06-05T05:49:16.080Z,21.93
2018-06-05T05:50:15.993Z,21.94
2018-06-05T05:51:16.385Z,21.94
2018-06-05T05:52:15.834Z,21.92
2018-06-05T05:53:16.014Z,21.94
2018-06-05T05:54:15.919Z,21.94
2018-06-05T05:55:15.972Z,21.93
2018-06-05T05:56:15.930Z,21.93
2018-06-05T05:57:15.838Z,21.93
2018-06-05T05:58:16.032Z,21.93
2018-06-05T05:59:16.211Z,21.94
2018-06-05T06:00:16.010Z,21.94
2018-06-05T06:01:16.048Z,21.93
2018-06-05T06:02:15.994Z,21.94
2018-06-05T06:03:16.198Z,21.93
2018-06-05T06:04:16.027Z,21.92
2018-06-05T06:05:16.264Z,21.92
2018-06-05T06:06:15.803Z,21.93
2018-06-05T06:07:16.161Z,21.94
2018-06-05T06:08:16.455Z,21.93
2018-06-05T06:09:15.861Z,21.92
2018-06-05T06:10:16.042Z,21.93
2018-06-05T06:11:15.896Z,21.93
2018-06-05T06:12:16.048Z,21.93
2018-06-05T06:13:16.040Z,21.93
2018-06-05T06:14:15.885Z,21.92
2018-06-05T06:15:15.949Z,21.93
2018-06-05T06:16:15.928Z,21.93
2018-06-05T06:17:15.821Z,21.93
2018-06-05T06:18:15.968Z,21.93
2018-06-05T06:19:16.164Z,21.92
2018-06-05T06:20:16.065Z,21.91
2018-06-05T06:21:16.205Z,21.93
2018-06-05T06:22:16.098Z,21.93
2018-06-05T06:23:15.867Z,21.93
2018-06-05T06:24:15.901Z,21.93
2018-06-05T06:25:16.232Z,21.92
2018-06-05T06:26:15.999Z,21.94
2018-06-05T06:27:16.180Z,21.93
2018-06-05T06:28:16.142Z,21.91
2018-06-05T06:29:16.050Z,21.92
2018-06-05T06:30:15.949Z,21.94
2018-06-05T06:31:16.086Z,21.93
2018-06-05T06:32:16.090Z,21.92
2018-06-05T06:33:16.040Z,21.92
2018-06-05T06:34:16.140Z,21.91
2018-06-05T06:35:16.389Z,21.93
2018-06-05T06:36:15.825Z,21.93
2018-06-05T06:37:15.969Z,21.93
2018-06-05T06:38:16.001Z,21.92
2018-06-05T06:39:15.867Z,21.93
2018-06-05T06:40:15.961Z,21.92
2018-06-05T06:41:16.659Z,21.93
2018-06-05T06:42:16.076Z,21.92
2018-06-05T06:43:16.031Z,21.91
2018-06-05T06:44:16.095Z,21.92
2018-06-05T06:45:15.877Z,21.93
2018-06-05T06:46:15.838Z,21.92
2018-06-05T06:47:15.844Z,21.94
2018-06-05T06:48:15.940Z,21.93
2018-06-05T06:49:16.020Z,21.92
2018-06-05T06:50:16.024Z,21.92
2018-06-05T06:51:16.051Z,21.94
2018-06-05T06:52:16.251Z,21.91
2018-06-05T06:53:15.855Z,21.94
2018-06-05T06:54:15.871Z,21.93
2018-06-05T06:55:15.917Z,21.93
2018-06-05T06:56:15.999Z,21.92
2018-06-05T06:57:15.993Z,21.93
2018-06-05T06:58:16.091Z,21.92
2018-06-05T06:59:16.344Z,21.93
2018-06-05T07:00:16.386Z,21.93
2018-06-05T07:01:15.810Z,21.92
2018-06-05T07:02:15.981Z,21.93
2018-06-05T07:03:15.941Z,21.92
2018-06-05T07:04:16.074Z,21.92
2018-06-05T07:05:16.038Z,21.93
2018-06-05T07:06:26.318Z,21.92
2018-06-05T07:07:15.834Z,21.91
2018-06-05T07:08:15.981Z,21.91
2018-06-05T07:09:15.903Z,21.93
2018-06-05T07:10:15.942Z,21.92
2018-06-05T07:11:15.877Z,21.93
2018-06-05T07:12:16.021Z,21.94
2018-06-05T07:13:15.997Z,21.92
2018-06-05T07:14:16.138Z,21.92
2018-06-05T07:15:15.952Z,21.92
2018-06-05T07:16:16.093Z,21.92
2018-06-05T07:17:15.854Z,21.93
2018-06-05T07:18:16.453Z,21.93
2018-06-05T07:19:15.943Z,21.92
2018-06-05T07:20:16.018Z,21.92
2018-06-05T07:21:15.927Z,21.92
2018-06-05T07:22:15.864Z,21.92
2018-06-05T07:23:16.099Z,21.93
2018-06-05T07:24:16.097Z,21.93
2018-06-05T07:25:15.908Z,21.91
2018-06-05T07:26:16.109Z,21.93
2018-06-05T07:27:16.167Z,21.91
2018-06-05T07:28:15.906Z,21.92
2018-06-05T07:29:16.310Z,21.92
2018-06-05T07:30:16.610Z,21.92
2018-06-05T07:31:15.828Z,21.91
2018-06-05T07:32:15.937Z,21.92
2018-06-05T07:33:15.802Z,21.92
2018-06-05T07:34:15.907Z,21.92
2018-06-05T07:35:16.167Z,21.92
2018-06-05T07:36:16.040Z,21.92
2018-06-05T07:37:16.197Z,21.93
2018-06-05T07:38:16.438Z,21.93
2018-06-05T07:39:16.053Z,21.92
2018-06-05T07:40:15.800Z,21.91
2018-06-05T07:41:15.918Z,21.93
2018-06-05T07:42:16.252Z,21.93
2018-06-05T07:43:16.350Z,21.93
2018-06-05T07:44:15.937Z,21.92
2018-06-05T07:45:15.936Z,21.93
2018-06-05T07:46:16.049Z,21.92
2018-06-05T07:47:15.956Z,21.93
2018-06-05T07:48:16.064Z,21.93
2018-06-05T07:49:15.971Z,21.92
2018-06-05T07:50:16.027Z,21.91
2018-06-05T07:51:15.808Z,21.93
2018-06-05T07:52:15.920Z,21.93
2018-06-05T07:53:16.006Z,21.93
2018-06-05T07:54:16.035Z,21.93
2018-06-05T07:55:15.987Z,21.92
2018-06-05T07:56:15.903Z,21.93
2018-06-05T07:57:16.133Z,21.93
2018-06-05T07:58:15.890Z,21.93
2018-06-05T07:59:15.949Z,21.92
2018-06-05T08:00:16.006Z,21.92
2018-06-05T08:01:15.953Z,21.91
2018-06-05T08:02:15.738Z,21.93
2018-06-05T08:03:15.957Z,21.93
2018-06-05T08:04:15.978Z,21.92
2018-06-05T08:05:16.364Z,21.93
2018-06-05T08:06:16.464Z,21.94
2018-06-05T08:07:15.939Z,21.92
2018-06-05T08:08:16.000Z,21.92
2018-06-05T08:09:15.991Z,21.93
2018-06-05T08:10:16.063Z,21.92
2018-06-05T08:11:15.780Z,21.93
2018-06-05T08:12:16.029Z,21.93
2018-06-05T08:13:16.003Z,21.92
2018-06-05T08:14:16.002Z,21.92
2018-06-05T08:15:16.080Z,21.92
2018-06-05T08:16:15.890Z,21.92
2018-06-05T08:17:16.103Z,21.92
2018-06-05T08:18:16.204Z,21.91
2018-06-05T08:19:15.984Z,21.93
2018-06-05T08:20:15.916Z,21.91
2018-06-05T08:21:16.149Z,21.93
2018-06-05T08:22:15.834Z,21.92
2018-06-05T08:23:15.890Z,21.93
2018-06-05T08:24:15.865Z,21.92
2018-06-05T08:25:16.049Z,21.93
2018-06-05T08:26:15.876Z,21.93
2018-06-05T08:27:15.986Z,21.93
2018-06-05T08:28:15.910Z,21.92
2018-06-05T08:29:15.957Z,21.93
2018-06-05T08:30:16.135Z,21.92
2018-06-05T08:31:15.962Z,21.92
2018-06-05T08:32:16.023Z,21.93
2018-06-05T08:33:25.891Z,21.93
2018-06-05T08:34:18.643Z,21.93
2018-06-05T08:35:16.094Z,21.92
2018-06-05T08:36:16.121Z,21.92
2018-06-05T08:37:15.930Z,21.92
2018-06-05T08:38:15.829Z,21.93
2018-06-05T08:39:16.045Z,21.93
2018-06-05T08:40:16.059Z,21.91
2018-06-05T08:41:15.977Z,21.93
2018-06-05T08:42:16.409Z,21.93
2018-06-05T08:43:15.793Z,21.91
2018-06-05T08:44:16.283Z,21.93
2018-06-05T08:45:15.970Z,21.93
2018-06-05T08:46:16.025Z,21.92
2018-06-05T08:47:15.835Z,21.92
2018-06-05T08:48:16.088Z,21.92
2018-06-05T08:49:16.053Z,21.91
2018-06-05T08:50:15.971Z,21.92
2018-06-05T08:51:16.200Z,21.92
2018-06-05T08:52:15.798Z,21.92
2018-06-05T08:53:15.999Z,21.92
2018-06-05T08:54:16.042Z,21.92
2018-06-05T08:55:16.036Z,21.91
2018-06-05T08:56:15.965Z,21.92
2018-06-05T08:57:15.981Z,21.92
2018-06-05T08:58:15.964Z,21.92
2018-06-05T08:59:15.927Z,21.93
2018-06-05T09:00:15.870Z,21.91
2018-06-05T09:01:16.085Z,21.92
2018-06-05T09:02:26.430Z,21.91
2018-06-05T09:03:16.251Z,21.91
2018-06-05T09:04:16.233Z,21.92
2018-06-05T09:05:16.275Z,21.91
2018-06-05T09:06:16.114Z,21.92
2018-06-05T09:07:16.418Z,21.91
2018-06-05T09:08:15.885Z,21.92
2018-06-05T09:09:15.836Z,21.92
2018-06-05T09:10:15.920Z,21.92
2018-06-05T09:11:15.805Z,21.92
2018-06-05T09:12:15.754Z,21.91
2018-06-05T09:13:15.915Z,21.92
2018-06-05T09:14:16.037Z,21.91
2018-06-05T09:15:15.995Z,21.91
2018-06-05T09:16:16.119Z,21.9
2018-06-05T09:17:15.951Z,21.92
2018-06-05T09:18:41.249Z,21.93
2018-06-05T09:19:16.092Z,21.92
2018-06-05T09:20:15.912Z,21.9
2018-06-05T09:21:15.872Z,21.93
2018-06-05T09:22:16.054Z,21.91
2018-06-05T09:23:15.813Z,21.91
2018-06-05T09:24:16.081Z,21.91
2018-06-05T09:25:15.988Z,21.92
2018-06-05T09:26:16.018Z,21.91
2018-06-05T09:27:15.889Z,21.92
2018-06-05T09:28:16.199Z,21.92
2018-06-05T09:29:15.892Z,21.91
2018-06-05T09:30:16.060Z,21.92
2018-06-05T09:31:15.903Z,21.91
2018-06-05T09:32:15.828Z,21.92
2018-06-05T09:33:15.878Z,21.93
2018-06-05T09:34:16.079Z,21.91
2018-06-05T09:35:15.731Z,21.91
2018-06-05T09:36:15.941Z,21.91
2018-06-05T09:37:16.119Z,21.9
2018-06-05T09:38:16.223Z,21.93
2018-06-05T09:39:15.858Z,21.92
2018-06-05T09:40:15.777Z,21.91
2018-06-05T09:41:16.154Z,21.91
2018-06-05T09:42:15.987Z,21.92
2018-06-05T09:43:15.964Z,21.91
2018-06-05T09:44:16.019Z,21.92
2018-06-05T09:45:15.905Z,21.92
2018-06-05T09:46:15.966Z,21.9
2018-06-05T09:47:16.138Z,21.92
2018-06-05T09:48:15.994Z,21.92
2018-06-05T09:49:15.828Z,21.9
2018-06-05T09:50:16.613Z,21.92
2018-06-05T09:51:16.104Z,21.92
2018-06-05T09:52:16.031Z,21.9
2018-06-05T09:53:16.063Z,21.91
2018-06-05T09:54:15.921Z,21.91
2018-06-05T09:55:15.980Z,21.92
2018-06-05T09:56:16.323Z,21.91
2018-06-05T09:57:16.060Z,21.91
2018-06-05T09:58:16.181Z,21.9
2018-06-05T09:59:16.452Z,21.9
2018-06-05T10:00:16.035Z,21.92
2018-06-05T10:01:16.445Z,21.91
2018-06-05T10:02:15.918Z,21.91
2018-06-05T10:03:16.110Z,21.91
2018-06-05T10:04:16.277Z,21.91
2018-06-05T10:05:15.741Z,21.92
2018-06-05T10:06:15.934Z,21.91
2018-06-05T10:07:16.090Z,21.92
2018-06-05T10:08:16.122Z,21.91
2018-06-05T10:09:16.161Z,21.92
2018-06-05T10:10:16.391Z,21.92
2018-06-05T10:11:15.860Z,21.91
2018-06-05T10:12:15.971Z,21.92
2018-06-05T10:13:15.923Z,21.9
2018-06-05T10:14:16.052Z,21.92
2018-06-05T10:15:16.231Z,21.92
2018-06-05T10:16:16.036Z,21.9
2018-06-05T10:17:16.198Z,21.91
2018-06-05T10:18:16.167Z,21.92
2018-06-05T10:19:15.819Z,21.9
2018-06-05T10:20:16.360Z,21.92
2018-06-05T10:21:16.545Z,21.92
2018-06-05T10:22:15.805Z,21.92
2018-06-05T10:23:16.033Z,21.91
2018-06-05T10:24:15.763Z,21.91
2018-06-05T10:25:16.028Z,21.91
2018-06-05T10:26:16.083Z,21.91
2018-06-05T10:27:16.460Z,21.91
2018-06-05T10:28:15.844Z,21.91
2018-06-05T10:29:15.888Z,21.91
2018-06-05T10:30:15.954Z,21.92
2018-06-05T10:31:15.866Z,21.9
2018-06-05T10:32:16.148Z,21.92
2018-06-05T10:33:15.938Z,21.92
2018-06-05T10:34:15.880Z,21.91
2018-06-05T10:35:15.977Z,21.91
2018-06-05T10:36:16.035Z,21.92
2018-06-05T10:37:16.125Z,21.92
2018-06-05T10:38:16.031Z,21.92
2018-06-05T10:39:15.996Z,21.91
2018-06-05T10:40:15.888Z,21.92
2018-06-05T10:41:15.977Z,21.91
2018-06-05T10:42:15.831Z,21.92
2018-06-05T10:43:15.759Z,21.92
2018-06-05T10:44:16.424Z,21.92
2018-06-05T10:45:16.028Z,21.92
2018-06-05T10:46:16.095Z,21.91
2018-06-05T10:47:15.979Z,21.91
2018-06-05T10:48:15.956Z,21.91
2018-06-05T10:49:15.886Z,21.91
2018-06-05T10:50:15.835Z,21.91
2018-06-05T10:51:15.974Z,21.92
2018-06-05T10:52:15.772Z,21.92
2018-06-05T10:53:15.987Z,21.91
2018-06-05T10:54:16.029Z,21.91
2018-06-05T10:55:15.903Z,21.91
2018-06-05T10:56:15.997Z,21.92
2018-06-05T10:57:15.786Z,21.93
2018-06-05T10:58:15.978Z,21.92
2018-06-05T10:59:16.301Z,21.91
2018-06-05T11:00:15.777Z,21.93
2018-06-05T11:01:15.811Z,21.93
2018-06-05T11:02:15.829Z,21.93
2018-06-05T11:03:15.861Z,21.92
2018-06-05T11:04:15.945Z,21.91
2018-06-05T11:05:15.953Z,21.93
2018-06-05T11:06:15.860Z,21.92
2018-06-05T11:07:16.148Z,21.9
2018-06-05T11:08:15.945Z,21.91
2018-06-05T11:09:15.945Z,21.96
2018-06-05T11:10:15.996Z,21.98
2018-06-05T11:11:15.935Z,21.98
2018-06-05T11:12:15.814Z,22.01
2018-06-05T11:13:15.951Z,22.02
2018-06-05T11:14:15.982Z,22.03
2018-06-05T11:15:15.864Z,22.02
2018-06-05T11:16:16.007Z,22.03
2018-06-05T11:17:15.957Z,22.04
2018-06-05T11:18:15.849Z,22.04
2018-06-05T11:19:16.002Z,22.05
2018-06-05T11:20:15.943Z,22.07
2018-06-05T11:21:15.799Z,22.08
2018-06-05T11:22:15.869Z,22.08
2018-06-05T11:23:15.715Z,22.1
2018-06-05T11:24:15.990Z,22.09
2018-06-05T11:25:15.968Z,22.09
2018-06-05T11:26:15.935Z,22.11
2018-06-05T11:27:15.902Z,22.1
2018-06-05T11:28:15.958Z,22.1
2018-06-05T11:29:15.984Z,22.12
2018-06-05T11:30:15.920Z,22.13
2018-06-05T11:31:15.698Z,22.13
2018-06-05T11:32:15.750Z,22.13
2018-06-05T11:33:16.035Z,22.13
2018-06-05T11:34:15.970Z,22.14
2018-06-05T11:35:15.915Z,22.14
2018-06-05T11:36:15.886Z,22.14
2018-06-05T11:37:15.825Z,22.15
2018-06-05T11:38:15.986Z,22.15
2018-06-05T11:39:16.203Z,22.16
2018-06-05T11:40:15.787Z,22.16
2018-06-05T11:41:15.845Z,22.17
2018-06-05T11:42:15.807Z,22.19
2018-06-05T11:43:15.855Z,22.18
2018-06-05T11:44:15.818Z,22.19
2018-06-05T11:45:15.879Z,22.19
2018-06-05T11:46:15.823Z,22.2
2018-06-05T11:47:15.917Z,22.21
2018-06-05T11:48:15.866Z,22.2
2018-06-05T11:49:16.012Z,22.22
2018-06-05T11:50:15.817Z,22.22
2018-06-05T11:51:15.951Z,22.23
2018-06-05T11:52:15.754Z,22.23
2018-06-05T11:53:15.944Z,22.23
2018-06-05T11:54:15.781Z,22.23
2018-06-05T11:55:15.844Z,22.22
2018-06-05T11:56:15.808Z,22.24
2018-06-05T11:57:16.138Z,22.24
2018-06-05T11:58:16.175Z,22.23
2018-06-05T11:59:15.779Z,22.24
2018-06-05T12:00:15.923Z,22.24
2018-06-05T12:01:15.752Z,22.24
2018-06-05T12:02:15.791Z,22.26
2018-06-05T12:03:15.823Z,22.25
2018-06-05T12:04:16.046Z,22.24
2018-06-05T12:05:15.825Z,22.22
2018-06-05T12:06:15.815Z,22.27
2018-06-05T12:07:15.871Z,22.24
2018-06-05T12:08:15.862Z,22.23
2018-06-05T12:09:15.973Z,22.22
2018-06-05T12:10:15.715Z,22.21
2018-06-05T12:11:15.699Z,22.19
2018-06-05T12:12:16.075Z,22.18
2018-06-05T12:13:16.058Z,22.16
2018-06-05T12:14:15.877Z,22.16
2018-06-05T12:15:15.776Z,22.16
2018-06-05T12:16:15.767Z,22.15
2018-06-05T12:17:15.767Z,22.14
2018-06-05T12:18:16.010Z,22.14
2018-06-05T12:19:15.815Z,22.14
2018-06-05T12:20:15.935Z,22.14
2018-06-05T12:21:16.011Z,22.14
2018-06-05T12:22:16.025Z,22.13
2018-06-05T12:23:15.820Z,22.12
2018-06-05T12:24:15.724Z,22.11
2018-06-05T12:25:15.848Z,22.11
2018-06-05T12:26:15.789Z,22.12
2018-06-05T12:27:15.925Z,22.12
2018-06-05T12:28:15.811Z,22.1
2018-06-05T12:29:15.997Z,22.11
2018-06-05T12:30:15.817Z,22.1
2018-06-05T12:31:16.009Z,22.1
2018-06-05T12:32:15.725Z,22.1
2018-06-05T12:33:16.088Z,22.1
2018-06-05T12:34:15.883Z,22.09
2018-06-05T12:35:15.965Z,22.09
2018-06-05T12:36:15.756Z,22.09
2018-06-05T12:37:15.875Z,22.09
2018-06-05T12:38:15.805Z,22.09
2018-06-05T12:39:15.775Z,22.08
2018-06-05T12:40:15.872Z,22.08
2018-06-05T12:41:15.736Z,22.08
2018-06-05T12:42:15.713Z,22.08
2018-06-05T12:43:16.025Z,22.07
2018-06-05T12:44:15.921Z,22.08
2018-06-05T12:45:15.962Z,22.07
2018-06-05T12:46:15.947Z,22.07
2018-06-05T12:47:15.796Z,22.08
2018-06-05T12:48:15.809Z,22.08
2018-06-05T12:49:15.908Z,22.07
2018-06-05T12:50:16.051Z,22.07
2018-06-05T12:51:16.042Z,22.07
2018-06-05T12:52:15.944Z,22.06
2018-06-05T12:53:15.798Z,22.06
2018-06-05T12:54:15.756Z,22.06
2018-06-05T12:55:16.040Z,22.06